Decoded Metar for KLHZ (LOUISBURG/FRANKL in NC, USA) (IATA:LHZ) | Meteo·Mobile Aviation Weather
aviador You're here:

KLHZ Decoded Metar

LOUISBURG/FRANKL in NC, USA
Report Time2019-04-25 21:40:00
UTC Time2019-04-25 22:06:39
Flight Rules vfr VFR
Wind200° at 05 kt
W.Decomp.*RWY 23: 4.7 kt HW 1.8 kt LCW
Visibility9999 m
Phenomena:N/A
Clouds:N/A
Expected CloudBase > 5,600 ft AGL from Temp-Dew spread
CeilingNone
Temp27°C (ISA +13)
Dew Point13°C (42% RH)
Heat Index27.0°C
AAT26.1°C
QNH1011 hPa
Density Alt2,110 ft
Elevation371 ft
Report Wrong Elevation
Raw Report
METAR KLHZ 252140Z AUTO 20005KT 10SM CLR 27/13 A2986 RMK AO2=

Extra information for KLHZ:More info

Metar Taf Metar & Taf Last 4 Metars F.Rules Stats Wind Profile Meteogram Temp Stats Airport Information Weather charts Add Link Nearby VenuesMetar ALERT Operation Metar Decoded Social comments

AIRNAV info for KLHZ